Time;durP1;ratioP1;P1;durP2;ratioP2;P2;SDS_P1;SDS_P2;PMS_P1;PMS_P2;Temp;Humidity;BMP_temperature;BMP_pressure;BME280_temperature;BME280_humidity;BME280_pressure;Samples;Min_cycle;Max_cycle;Signal;HPM_P1;HPM_P2
2022/05/08 00:01:48;;;;;;;4.73;2.80;;;;;;;16.40;39.75;94987.50;4792894;29;20209;-80
2022/05/08 00:04:13;;;;;;;7.80;2.43;;;;;;;16.42;39.42;94984.63;4794771;29;20222;-79
2022/05/08 00:06:39;;;;;;;5.93;2.50;;;;;;;16.70;38.92;94993.84;4781891;30;20272;-80
2022/05/08 00:09:04;;;;;;;2.40;2.20;;;;;;;16.40;39.73;94981.41;4783106;29;20190;-80
2022/05/08 00:11:32;;;;;;;5.97;2.97;;;;;;;16.48;39.18;94978.47;4791166;30;20241;-80
2022/05/08 00:13:57;;;;;;;6.67;2.90;;;;;;;16.31;39.75;94988.81;4781459;30;20205;-79
2022/05/08 00:16:23;;;;;;;4.70;2.73;;;;;;;15.88;40.34;94984.44;4781985;30;20452;-79
2022/05/08 00:18:49;;;;;;;3.83;3.10;;;;;;;15.82;40.85;94987.94;4784883;30;20202;-79
2022/05/08 00:21:14;;;;;;;2.77;2.57;;;;;;;15.90;40.67;94981.59;4781059;30;20203;-79
2022/05/08 00:23:40;;;;;;;3.17;2.77;;;;;;;16.51;39.50;94985.97;4784892;30;20218;-79
2022/05/08 00:26:08;;;;;;;3.03;2.83;;;;;;;16.20;39.96;94987.75;4781453;30;20249;-79
2022/05/08 00:28:38;;;;;;;4.60;2.50;;;;;;;16.21;40.17;94983.25;4781538;30;20205;-80
2022/05/08 00:31:04;;;;;;;4.57;2.93;;;;;;;16.32;40.05;94982.53;4782357;30;20483;-79
2022/05/08 00:33:31;;;;;;;3.33;3.03;;;;;;;16.15;40.69;94989.44;4782796;30;20493;-80
2022/05/08 00:35:57;;;;;;;3.53;2.70;;;;;;;15.98;40.47;94989.22;4774141;30;20500;-79
2022/05/08 00:38:22;;;;;;;4.60;3.10;;;;;;;15.92;40.76;94984.81;4763619;30;20464;-80
2022/05/08 00:40:48;;;;;;;7.33;2.90;;;;;;;15.60;41.60;94990.16;4779488;30;20234;-79
2022/05/08 00:43:43;;;;;;;6.97;3.07;;;;;;;15.76;40.72;94987.00;4782597;30;20204;-79
2022/05/08 00:46:11;;;;;;;3.67;2.70;;;;;;;15.89;40.53;94988.69;4747856;30;20508;-80
2022/05/08 00:48:38;;;;;;;4.67;2.83;;;;;;;16.06;40.12;94986.28;4764322;30;20429;-81
2022/05/08 00:51:09;;;;;;;4.13;2.80;;;;;;;16.07;40.37;94993.19;4777972;30;20452;-80
2022/05/08 00:53:37;;;;;;;3.90;3.00;;;;;;;15.99;40.28;94985.53;4776974;30;20432;-79
2022/05/08 00:56:05;;;;;;;5.90;3.33;;;;;;;16.26;39.68;94985.22;4782494;30;20432;-79
2022/05/08 00:58:32;;;;;;;2.53;2.33;;;;;;;16.16;39.87;94983.94;4782333;30;20433;-79
2022/05/08 01:00:58;;;;;;;3.03;2.80;;;;;;;15.91;40.00;94983.19;4782070;30;20507;-80
2022/05/08 01:03:23;;;;;;;2.80;2.60;;;;;;;15.87;40.35;94984.66;4782253;30;20432;-80
2022/05/08 01:05:53;;;;;;;3.03;2.80;;;;;;;15.82;40.14;94990.56;4780686;30;20521;-80
2022/05/08 01:08:21;;;;;;;2.57;2.37;;;;;;;15.90;40.25;94986.88;4782220;30;20235;-79
2022/05/08 01:10:47;;;;;;;6.50;3.10;;;;;;;16.05;40.30;94979.41;4780778;30;20519;-80
2022/05/08 01:13:12;;;;;;;3.70;3.00;;;;;;;16.00;40.22;94987.16;4784041;30;20512;-79
2022/05/08 01:15:40;;;;;;;6.43;3.20;;;;;;;16.07;39.78;94982.63;4803637;29;20193;-79
2022/05/08 01:18:06;;;;;;;4.60;3.10;;;;;;;15.91;40.03;94977.91;4806941;29;20197;-79
2022/05/08 01:20:31;;;;;;;3.27;3.07;;;;;;;16.04;39.92;94977.78;4823675;29;20472;-79
2022/05/08 01:22:57;;;;;;;3.77;3.47;;;;;;;16.02;39.97;94979.03;4820301;29;20434;-80
2022/05/08 01:25:22;;;;;;;3.27;3.00;;;;;;;16.01;39.73;94980.84;4802535;29;20217;-80
2022/05/08 01:27:48;;;;;;;3.53;3.10;;;;;;;15.86;40.82;94981.22;4818121;29;20203;-81
2022/05/08 01:30:13;;;;;;;4.10;3.70;;;;;;;15.88;40.64;94983.63;4801599;29;20671;-79
2022/05/08 01:32:39;;;;;;;3.60;3.30;;;;;;;15.81;40.77;94979.22;4817085;29;20196;-80
2022/05/08 01:35:05;;;;;;;3.20;2.90;;;;;;;15.68;40.88;94984.59;4807602;29;20188;-78
2022/05/08 01:37:30;;;;;;;3.13;2.93;;;;;;;15.71;40.84;94973.63;4784000;29;20238;-79
2022/05/08 01:39:56;;;;;;;3.17;2.93;;;;;;;15.85;40.80;94973.50;4784835;30;20469;-79
2022/05/08 01:42:22;;;;;;;5.90;3.17;;;;;;;15.89;40.54;94969.41;4812330;29;20212;-79
2022/05/08 01:44:50;;;;;;;3.73;2.83;;;;;;;15.91;40.34;94970.00;4801122;29;20474;-80
2022/05/08 01:50:00;;;;;;;4.13;2.90;;;;;;;15.82;40.46;94969.47;4818035;29;20440;-79
2022/05/08 01:52:25;;;;;;;3.97;3.67;;;;;;;15.90;40.45;94965.75;4816331;29;20454;-79
2022/05/08 01:54:52;;;;;;;3.40;3.10;;;;;;;15.99;40.18;94964.41;4801444;29;20197;-79
2022/05/08 01:57:17;;;;;;;4.53;3.50;;;;;;;15.72;40.35;94964.66;4786587;29;20205;-80
2022/05/08 01:59:43;;;;;;;3.40;3.10;;;;;;;15.74;40.58;94967.13;4805136;29;20434;-79
2022/05/08 02:02:08;;;;;;;6.00;3.90;;;;;;;15.60;40.81;94967.22;4804957;29;20204;-80
2022/05/08 02:04:34;;;;;;;3.70;3.40;;;;;;;15.51;41.34;94968.50;4820392;29;20697;-79
2022/05/08 02:07:00;;;;;;;4.90;3.10;;;;;;;15.34;41.27;94972.72;4821092;29;20193;-79
2022/05/08 02:09:25;;;;;;;3.90;3.60;;;;;;;15.30;41.25;94972.34;4821201;29;20188;-79
2022/05/08 02:11:51;;;;;;;3.00;2.80;;;;;;;15.50;41.09;94972.19;4804316;29;20247;-80
2022/05/08 02:14:16;;;;;;;8.47;4.20;;;;;;;15.44;41.49;94973.03;4820998;29;20253;-79
2022/05/08 02:16:42;;;;;;;5.70;3.77;;;;;;;15.40;41.15;94974.50;4821334;29;20192;-79
2022/05/08 02:19:07;;;;;;;6.03;3.70;;;;;;;15.33;41.27;94971.13;4804943;29;20196;-79
2022/05/08 02:21:33;;;;;;;4.17;3.77;;;;;;;15.32;41.28;94966.88;4821082;29;20298;-79
2022/05/08 02:23:58;;;;;;;4.10;3.80;;;;;;;15.30;41.23;94972.34;4820819;29;20570;-79
2022/05/08 02:26:24;;;;;;;5.13;3.47;;;;;;;15.32;41.26;94970.28;4792730;30;20201;-80
2022/05/08 02:28:49;;;;;;;5.13;3.63;;;;;;;15.50;40.49;94966.09;4802792;29;20194;-80
2022/05/08 02:31:14;;;;;;;4.97;4.00;;;;;;;15.28;40.97;94970.94;4794765;29;20201;-79
2022/05/08 02:33:40;;;;;;;4.90;3.83;;;;;;;15.18;41.25;94968.81;4804144;29;20201;-80
2022/05/08 02:36:06;;;;;;;5.33;4.93;;;;;;;15.38;41.05;94974.69;4820479;29;20283;-80
2022/05/08 02:38:33;;;;;;;11.10;4.90;;;;;;;15.13;41.89;94964.16;4820689;29;20192;-79
2022/05/08 02:40:58;;;;;;;5.43;4.00;;;;;;;15.19;41.10;94971.19;4820332;29;20434;-80
2022/05/08 02:43:24;;;;;;;6.90;4.00;;;;;;;15.26;41.00;94976.44;4792109;29;20443;-79
2022/05/08 02:45:49;;;;;;;7.93;4.07;;;;;;;14.81;40.81;94968.63;4786323;30;20297;-79
2022/05/08 02:48:15;;;;;;;8.97;4.33;;;;;;;14.91;40.61;94969.00;4793290;29;20205;-79
2022/05/08 02:50:40;;;;;;;5.40;3.47;;;;;;;14.72;41.78;94967.28;4792869;29;20193;-79
2022/05/08 02:53:06;;;;;;;5.27;3.73;;;;;;;14.89;40.84;94968.41;4812152;29;20237;-80
2022/05/08 02:58:33;;;;;;;4.00;3.70;;;;;;;14.19;41.80;94977.03;4820331;29;20553;-79
2022/05/08 03:01:00;;;;;;;4.50;3.73;;;;;;;14.29;41.61;94976.59;4807289;29;20554;-80
2022/05/08 03:03:26;;;;;;;6.00;3.93;;;;;;;14.07;42.14;94973.41;4821944;29;20497;-80
2022/05/08 03:05:51;;;;;;;3.87;3.27;;;;;;;13.56;42.69;94974.94;4826056;29;20993;-79
2022/05/08 03:08:17;;;;;;;4.87;3.20;;;;;;;12.88;44.35;94977.75;4803863;29;20222;-79
2022/05/08 03:13:29;;;;;;;3.50;3.20;;;;;;;13.21;43.25;94984.84;4802785;29;20414;-80
2022/05/08 03:15:55;;;;;;;4.13;3.83;;;;;;;13.16;43.51;94982.81;4785820;30;20436;-80
2022/05/08 03:18:40;;;;;;;4.60;4.20;;;;;;;13.12;44.83;94980.81;4794588;29;20437;-79
2022/05/08 03:21:08;;;;;;;5.27;4.80;;;;;;;13.25;44.12;94986.06;4821640;29;20232;-80
2022/05/08 03:23:34;;;;;;;4.50;4.10;;;;;;;13.63;43.75;94988.09;4837984;29;20432;-79
2022/05/08 03:26:00;;;;;;;5.67;3.90;;;;;;;13.59;43.22;94987.69;4810609;29;20491;-79
2022/05/08 03:28:25;;;;;;;4.30;4.00;;;;;;;13.37;43.88;94989.72;4803137;29;20234;-79
2022/05/08 03:30:51;;;;;;;4.13;3.83;;;;;;;13.75;42.49;94981.19;4810293;29;20510;-79
2022/05/08 03:33:17;;;;;;;4.43;4.03;;;;;;;13.95;42.15;94981.16;4803417;29;20201;-79
2022/05/08 03:35:43;;;;;;;4.53;4.20;;;;;;;13.93;42.21;94988.44;4825898;29;20240;-79
2022/05/08 03:38:08;;;;;;;5.83;4.53;;;;;;;14.20;42.11;94991.00;4786179;29;20423;-79
2022/05/08 03:40:35;;;;;;;5.77;4.57;;;;;;;14.38;40.62;94985.03;4804238;29;20440;-80
2022/05/08 03:43:01;;;;;;;7.57;4.00;;;;;;;14.54;40.24;94987.19;4801091;29;20189;-79
2022/05/08 03:45:29;;;;;;;5.07;4.57;;;;;;;14.59;39.18;94987.41;4810382;29;20540;-80
2022/05/08 03:47:55;;;;;;;3.73;3.43;;;;;;;14.69;40.16;94988.78;4812220;29;20425;-79
2022/05/08 03:50:21;;;;;;;7.37;4.23;;;;;;;15.02;38.90;94993.84;4821586;29;20425;-80
2022/05/08 03:52:47;;;;;;;12.33;4.60;;;;;;;14.35;39.87;94996.00;4827624;29;20446;-80
2022/05/08 03:55:15;;;;;;;5.30;3.70;;;;;;;14.30;41.07;95009.78;4819520;29;20434;-80
2022/05/08 03:57:43;;;;;;;8.23;4.63;;;;;;;14.59;42.55;95000.59;4803115;29;20447;-80
2022/05/08 04:00:09;;;;;;;8.73;5.30;;;;;;;14.57;43.06;95002.63;4802577;29;20438;-80
2022/05/08 04:02:35;;;;;;;5.20;4.70;;;;;;;14.60;44.25;94993.47;4803049;29;20506;-80
2022/05/08 04:05:02;;;;;;;5.03;4.53;;;;;;;14.71;44.02;94992.81;4803222;29;20361;-81
2022/05/08 04:07:28;;;;;;;4.90;4.57;;;;;;;14.75;44.05;94995.84;4836321;29;20564;-80
2022/05/08 04:09:54;;;;;;;9.17;4.90;;;;;;;14.76;43.52;94998.28;4815570;29;20437;-80
2022/05/08 04:12:19;;;;;;;5.90;4.67;;;;;;;14.95;43.75;95001.81;4800349;29;20239;-80
2022/05/08 04:14:45;;;;;;;4.73;4.23;;;;;;;14.70;43.41;94998.28;4801378;29;20182;-79
2022/05/08 04:17:10;;;;;;;5.43;4.60;;;;;;;14.51;44.10;94999.97;4784985;29;20222;-80
2022/05/08 04:19:37;;;;;;;5.53;4.27;;;;;;;14.64;42.80;95006.03;4817893;29;20193;-80
2022/05/08 04:24:47;;;;;;;5.00;4.50;;;;;;;15.36;41.68;95002.31;4819077;29;20470;-80
2022/05/08 04:27:12;;;;;;;4.77;4.37;;;;;;;15.30;41.94;95000.56;4795265;30;20455;-80
2022/05/08 04:29:38;;;;;;;7.47;4.60;;;;;;;15.45;41.17;95010.78;4784843;30;20220;-80
2022/05/08 04:32:04;;;;;;;4.97;4.50;;;;;;;14.88;41.00;95016.84;4800984;29;20202;-80
2022/05/08 04:34:29;;;;;;;4.97;4.30;;;;;;;14.77;39.79;95014.88;4800509;29;20225;-80
2022/05/08 04:36:54;;;;;;;5.93;5.50;;;;;;;14.91;39.89;95015.59;4804206;29;20497;-80
2022/05/08 04:39:20;;;;;;;8.00;4.10;;;;;;;14.83;40.40;95014.03;4800855;29;20197;-80
2022/05/08 04:41:46;;;;;;;6.17;4.63;;;;;;;15.21;38.61;95011.38;4799222;29;20233;-81
2022/05/08 04:44:12;;;;;;;7.17;4.23;;;;;;;15.25;38.97;95014.34;4800422;29;20670;-80
2022/05/08 04:46:37;;;;;;;4.93;4.03;;;;;;;15.48;38.75;95021.72;4802623;29;20458;-80
2022/05/08 04:49:03;;;;;;;5.47;4.20;;;;;;;15.73;37.98;95012.97;4818311;29;20276;-80
2022/05/08 04:51:29;;;;;;;7.43;4.00;;;;;;;15.28;38.25;95011.31;4815810;29;20193;-80
2022/05/08 04:53:54;;;;;;;4.37;3.77;;;;;;;15.67;37.66;95014.66;4802271;29;20233;-80
2022/05/08 04:56:20;;;;;;;3.73;3.43;;;;;;;16.14;36.48;95016.84;4809890;29;20305;-80
2022/05/08 04:58:45;;;;;;;5.97;3.87;;;;;;;15.54;36.94;95020.03;4801664;29;20202;-80
2022/05/08 05:01:11;;;;;;;7.30;3.67;;;;;;;16.05;36.33;95011.06;4797007;29;20267;-80
2022/05/08 05:03:37;;;;;;;4.67;3.60;;;;;;;15.76;36.88;95017.84;4801960;29;20204;-80
2022/05/08 05:06:02;;;;;;;8.43;4.07;;;;;;;15.98;36.65;95007.69;4801757;29;20239;-80
2022/05/08 05:08:28;;;;;;;3.57;3.37;;;;;;;16.22;35.60;95021.88;4808175;29;20438;-80
2022/05/08 05:10:54;;;;;;;3.53;3.23;;;;;;;15.92;35.76;95019.13;4817892;29;20331;-80
2022/05/08 05:13:19;;;;;;;3.77;3.40;;;;;;;16.27;35.89;95019.34;4801968;29;20230;-80
2022/05/08 05:15:45;;;;;;;3.77;3.40;;;;;;;16.38;36.24;95018.63;4799251;29;20200;-80
2022/05/08 05:18:10;;;;;;;7.13;4.13;;;;;;;16.44;36.24;95019.56;4801773;29;20276;-80
2022/05/08 05:21:16;;;;;;;5.33;4.40;;;;;;;16.86;35.29;95021.53;4817583;29;20256;-80
2022/05/08 05:23:42;;;;;;;5.77;4.70;;;;;;;17.03;35.32;95022.50;4815624;29;20657;-80
2022/05/08 05:26:07;;;;;;;5.63;4.43;;;;;;;16.83;35.82;95017.50;4801428;29;20465;-80
2022/05/08 05:28:33;;;;;;;5.17;4.07;;;;;;;15.77;37.51;95025.53;4817839;29;20227;-80
2022/05/08 05:30:59;;;;;;;5.77;4.27;;;;;;;16.68;36.30;95019.69;4817112;29;20204;-80
2022/05/08 05:33:24;;;;;;;7.10;4.10;;;;;;;16.47;36.22;95019.13;4817422;29;20211;-80
2022/05/08 05:35:50;;;;;;;4.00;3.67;;;;;;;16.30;36.29;95021.56;4801465;29;20188;-80
2022/05/08 05:38:15;;;;;;;4.93;4.47;;;;;;;16.51;35.72;95017.66;4813222;29;20633;-80
2022/05/08 05:40:49;;;;;;;4.20;3.73;;;;;;;17.19;34.52;95021.06;4801470;29;20200;-80
2022/05/08 05:43:14;;;;;;;4.83;4.43;;;;;;;17.44;34.38;95014.78;4797423;29;20204;-80
2022/05/08 05:45:40;;;;;;;4.07;3.77;;;;;;;17.18;34.43;95012.31;4812302;29;20579;-80
2022/05/08 05:48:06;;;;;;;6.00;4.10;;;;;;;17.27;34.48;95020.72;4816542;29;20228;-79
2022/05/08 05:50:31;;;;;;;4.50;3.60;;;;;;;17.98;33.76;95027.97;4817176;29;20685;-80
2022/05/08 05:52:57;;;;;;;6.00;3.93;;;;;;;17.58;34.30;95018.03;4828713;29;20614;-79
2022/05/08 05:55:22;;;;;;;5.13;4.07;;;;;;;18.06;33.41;95025.78;4820984;29;20200;-79
2022/05/08 05:57:48;;;;;;;4.20;3.80;;;;;;;18.35;32.50;95017.91;4817610;29;20184;-79
2022/05/08 06:00:18;;;;;;;7.33;4.40;;;;;;;18.48;32.41;95011.56;4807637;29;20193;-79
2022/05/08 06:02:45;;;;;;;4.00;3.30;;;;;;;18.80;31.36;95009.28;4790295;30;20184;-79
2022/05/08 06:05:11;;;;;;;5.20;3.30;;;;;;;18.79;31.39;95012.94;4787910;29;20467;-79
2022/05/08 06:07:38;;;;;;;3.83;2.87;;;;;;;18.69;31.62;95012.75;4801625;29;20422;-79
2022/05/08 06:10:09;;;;;;;6.30;4.10;;;;;;;18.67;31.28;95009.53;4816859;29;20433;-79
2022/05/08 06:12:35;;;;;;;3.43;3.20;;;;;;;18.91;30.80;95012.91;4815928;29;20538;-79
2022/05/08 06:15:01;;;;;;;4.63;3.53;;;;;;;18.69;31.57;95002.16;4797175;29;20420;-79
2022/05/08 06:17:26;;;;;;;3.40;3.10;;;;;;;18.66;31.61;95005.25;4796614;29;20421;-79
2022/05/08 06:19:52;;;;;;;3.20;3.00;;;;;;;18.45;32.11;95006.72;4786539;29;20206;-79
2022/05/08 06:22:18;;;;;;;5.97;3.50;;;;;;;17.69;33.59;95010.09;4794136;30;20194;-79
2022/05/08 06:24:44;;;;;;;3.37;3.10;;;;;;;18.84;31.80;95010.44;4796603;29;20225;-79
2022/05/08 06:27:10;;;;;;;3.53;3.17;;;;;;;19.18;30.83;94999.88;4797938;29;20450;-80
2022/05/08 06:29:36;;;;;;;4.50;3.80;;;;;;;19.15;31.31;94995.03;4793239;29;20643;-79
2022/05/08 06:32:02;;;;;;;5.40;3.70;;;;;;;19.73;30.49;95001.06;4798260;29;20492;-79
2022/05/08 06:34:27;;;;;;;3.30;3.10;;;;;;;19.35;31.06;95001.72;4782258;29;20199;-80
2022/05/08 06:36:54;;;;;;;3.70;3.40;;;;;;;19.25;31.35;95002.38;4807044;29;20437;-79
2022/05/08 06:39:20;;;;;;;3.20;2.90;;;;;;;19.13;31.68;95002.44;4781487;29;20213;-79
2022/05/08 06:41:46;;;;;;;5.37;3.30;;;;;;;19.20;31.29;94997.78;4784389;30;20447;-80
2022/05/08 06:44:13;;;;;;;5.00;3.80;;;;;;;19.23;31.56;94997.31;4785999;29;20448;-80
2022/05/08 06:46:39;;;;;;;6.73;3.50;;;;;;;18.88;31.90;94994.84;4783977;30;20189;-80
2022/05/08 06:49:05;;;;;;;5.13;3.90;;;;;;;19.11;31.42;94989.41;4805334;29;20451;-80
2022/05/08 06:51:32;;;;;;;6.37;4.00;;;;;;;18.85;32.47;94995.31;4801861;29;20469;-79
2022/05/08 06:53:58;;;;;;;4.63;3.63;;;;;;;19.95;30.63;94987.03;4815891;29;20492;-80
2022/05/08 06:56:26;;;;;;;4.40;3.67;;;;;;;20.16;30.49;94993.41;4815077;29;20423;-79
2022/05/08 07:01:36;;;;;;;3.67;3.30;;;;;;;20.28;30.04;94986.94;4785759;29;20470;-79
2022/05/08 07:04:02;;;;;;;4.33;3.70;;;;;;;20.09;31.11;94989.09;4784118;30;20478;-80
2022/05/08 07:06:28;;;;;;;3.47;3.23;;;;;;;20.21;30.69;94990.84;4782685;29;20472;-80
2022/05/08 07:08:54;;;;;;;7.83;4.00;;;;;;;20.79;29.84;94985.94;4783320;29;20456;-80
2022/05/08 07:11:19;;;;;;;8.13;3.80;;;;;;;21.01;29.56;94984.06;4790678;29;20478;-80
2022/05/08 07:13:45;;;;;;;5.57;4.00;;;;;;;20.53;29.92;94982.19;4787553;29;20190;-80
2022/05/08 07:16:10;;;;;;;4.50;3.43;;;;;;;21.05;29.67;94981.69;4819938;29;20200;-80
2022/05/08 07:18:36;;;;;;;4.37;3.93;;;;;;;21.01;29.47;94988.56;4800074;29;20189;-80
2022/05/08 07:21:01;;;;;;;3.97;3.50;;;;;;;21.01;29.26;94983.25;4803149;29;20201;-80
2022/05/08 07:23:27;;;;;;;12.10;3.93;;;;;;;21.12;29.05;94984.97;4816284;29;20193;-80
2022/05/08 07:25:52;;;;;;;4.23;3.20;;;;;;;20.93;29.39;94971.19;4816951;29;20662;-80
2022/05/08 07:28:18;;;;;;;3.87;3.57;;;;;;;20.92;29.09;94979.44;4818057;29;20201;-79
2022/05/08 07:30:44;;;;;;;3.83;3.47;;;;;;;21.00;28.97;94976.31;4803438;29;20185;-80
2022/05/08 07:33:09;;;;;;;3.50;3.20;;;;;;;20.83;29.37;94971.91;4821167;29;20453;-80
2022/05/08 07:38:21;;;;;;;8.07;3.40;;;;;;;20.86;29.23;94966.06;4818795;29;20277;-80
2022/05/08 07:40:48;;;;;;;3.20;2.90;;;;;;;21.28;29.64;94972.56;4819437;29;20426;-80
2022/05/08 07:43:15;;;;;;;10.70;4.90;;;;;;;21.34;29.07;94974.25;4803346;29;20459;-79
2022/05/08 07:45:43;;;;;;;4.60;3.73;;;;;;;20.90;29.75;94970.91;4802406;29;20462;-80
2022/05/08 07:48:08;;;;;;;6.30;3.50;;;;;;;21.22;29.81;94960.28;4801980;29;20550;-80
2022/05/08 07:50:34;;;;;;;5.13;3.23;;;;;;;21.41;29.30;94966.84;4818596;29;20422;-79
2022/05/08 07:52:59;;;;;;;4.50;4.10;;;;;;;21.69;28.82;94969.47;4800913;29;20208;-80
2022/05/08 07:55:25;;;;;;;5.00;3.87;;;;;;;22.08;28.38;94958.50;4822850;29;20215;-80
2022/05/08 07:57:50;;;;;;;3.70;3.37;;;;;;;22.18;28.28;94963.91;4800194;29;20205;-80
2022/05/08 08:00:16;;;;;;;3.40;3.20;;;;;;;22.06;27.67;94960.63;4819020;29;20185;-79
2022/05/08 08:02:42;;;;;;;4.80;3.60;;;;;;;22.21;31.90;94958.03;4820288;29;20279;-80
2022/05/08 08:05:08;;;;;;;5.20;4.30;;;;;;;21.85;28.64;94955.19;4819015;29;20727;-78
2022/05/08 08:07:33;;;;;;;3.10;2.83;;;;;;;21.69;28.74;94953.50;4808002;29;20584;-82
2022/05/08 08:09:59;;;;;;;5.30;3.83;;;;;;;22.02;29.45;94960.34;4811941;29;20517;-83
2022/05/08 08:12:25;;;;;;;4.40;3.77;;;;;;;22.84;31.02;94949.22;4797650;29;20256;-83
2022/05/08 08:14:50;;;;;;;4.47;3.30;;;;;;;22.44;28.21;94953.34;4782884;30;20191;-82
2022/05/08 08:17:16;;;;;;;4.60;4.20;;;;;;;23.16;27.61;94944.50;4788139;30;20210;-84
2022/05/08 08:19:42;;;;;;;4.33;3.33;;;;;;;23.24;27.40;94945.00;4782987;30;20737;-84
2022/05/08 08:25:30;;;;;;;3.87;3.57;;;;;;;22.89;26.71;94944.69;4774936;30;20229;-83
2022/05/08 08:27:55;;;;;;;4.00;3.60;;;;;;;23.00;27.06;94937.50;4782401;30;20497;-83
2022/05/08 08:30:21;;;;;;;5.10;4.60;;;;;;;23.53;26.70;94943.41;4777773;30;20444;-82
2022/05/08 08:32:47;;;;;;;4.10;3.67;;;;;;;23.62;26.08;94942.88;4764643;30;20217;-84
2022/05/08 08:35:13;;;;;;;3.90;3.50;;;;;;;23.35;25.96;94935.94;4779059;30;20194;-83
2022/05/08 08:37:39;;;;;;;4.33;3.33;;;;;;;23.47;26.14;94936.47;4782294;30;20439;-84
2022/05/08 08:40:05;;;;;;;3.80;3.60;;;;;;;23.62;25.35;94933.00;4788898;30;20203;-84
2022/05/08 08:42:32;;;;;;;3.60;3.30;;;;;;;24.28;25.31;94931.25;4774398;30;20188;-84
2022/05/08 08:48:05;;;;;;;2.97;2.77;;;;;;;22.91;25.19;94920.41;4769094;30;20429;-84
2022/05/08 08:50:32;;;;;;;3.80;3.50;;;;;;;22.08;25.86;94932.63;4780912;30;20440;-84
2022/05/08 08:52:59;;;;;;;3.97;3.33;;;;;;;22.79;25.23;94923.31;4783709;30;20557;-85
2022/05/08 08:55:25;;;;;;;6.10;3.57;;;;;;;23.49;25.21;94923.66;4780387;30;20440;-86
2022/05/08 08:57:51;;;;;;;3.07;2.90;;;;;;;23.56;24.48;94924.19;4782256;30;20468;-85
2022/05/08 09:00:21;;;;;;;5.53;2.70;;;;;;;24.04;23.48;94923.06;4777519;30;20530;-86
2022/05/08 09:02:48;;;;;;;4.17;3.30;;;;;;;24.09;24.43;94920.34;4782178;30;20428;-85
2022/05/08 09:05:14;;;;;;;3.97;3.03;;;;;;;24.22;24.12;94919.75;4787024;30;20479;-86
2022/05/08 09:07:41;;;;;;;5.83;3.67;;;;;;;24.34;23.65;94914.91;4800066;29;20424;-85
2022/05/08 09:10:20;;;;;;;5.70;3.40;;;;;;;24.37;24.04;94908.19;4790342;29;20452;-85
2022/05/08 09:12:51;;;;;;;4.20;2.60;;;;;;;23.68;24.52;94905.19;4800809;29;20499;-86
2022/05/08 09:15:31;;;;;;;5.10;3.23;;;;;;;24.72;23.51;94904.56;4798765;29;20448;-85
2022/05/08 09:17:59;;;;;;;4.67;3.37;;;;;;;25.04;23.11;94900.63;4816640;29;20503;-85
2022/05/08 09:20:32;;;;;;;5.20;3.53;;;;;;;24.62;23.47;94901.16;4801627;29;20543;-85
2022/05/08 09:23:10;;;;;;;3.40;3.10;;;;;;;25.21;23.38;94894.88;4801678;29;20425;-85
2022/05/08 09:25:52;;;;;;;5.20;3.23;;;;;;;25.30;23.54;94895.06;4816676;29;20489;-85
2022/05/08 09:28:28;;;;;;;4.57;3.23;;;;;;;25.06;23.86;94890.41;4816884;29;20468;-85
2022/05/08 09:30:57;;;;;;;2.73;2.53;;;;;;;24.77;23.29;94897.56;4818344;29;20524;-85
2022/05/08 09:33:32;;;;;;;2.97;2.37;;;;;;;24.89;22.21;94898.03;4815034;29;20430;-85
2022/05/08 09:36:00;;;;;;;2.97;2.63;;;;;;;24.90;21.29;94894.28;4809764;29;20594;-85
2022/05/08 09:38:48;;;;;;;2.63;2.43;;;;;;;25.41;20.19;94893.91;4813702;29;20430;-83
2022/05/08 09:41:17;;;;;;;3.20;2.90;;;;;;;25.62;20.07;94891.81;4802935;29;20883;-84
2022/05/08 09:43:44;;;;;;;3.60;3.30;;;;;;;24.91;20.10;94877.94;4809927;29;20462;-85
2022/05/08 09:46:10;;;;;;;3.50;2.63;;;;;;;25.32;20.81;94882.19;4812844;29;20585;-85
2022/05/08 09:48:37;;;;;;;2.73;2.53;;;;;;;25.94;19.60;94876.25;4797384;29;20419;-85
2022/05/08 09:51:05;;;;;;;3.10;2.03;;;;;;;25.93;18.88;94874.66;4798867;29;20522;-85
2022/05/08 09:53:31;;;;;;;2.60;2.40;;;;;;;25.78;19.06;94873.72;4811853;29;20502;-85
2022/05/08 09:55:59;;;;;;;3.93;2.00;;;;;;;26.92;17.49;94873.91;4813493;29;20446;-85
2022/05/08 09:58:26;;;;;;;5.40;2.50;;;;;;;26.59;17.34;94865.78;4800417;29;20494;-84
2022/05/08 10:00:52;;;;;;;2.70;2.50;;;;;;;26.43;16.89;94865.19;4803640;29;20485;-85
2022/05/08 10:03:19;;;;;;;2.60;1.87;;;;;;;26.29;17.63;94866.97;4789501;29;20427;-85
2022/05/08 10:05:47;;;;;;;2.00;1.90;;;;;;;25.73;17.06;94860.34;4813683;29;20513;-85
2022/05/08 10:08:19;;;;;;;2.60;2.17;;;;;;;26.16;16.47;94857.75;4797602;29;20542;-85
2022/05/08 10:13:54;;;;;;;2.00;1.90;;;;;;;26.46;16.91;94851.19;4814624;29;20408;-85
2022/05/08 10:16:45;;;;;;;4.73;2.83;;;;;;;26.76;17.79;94851.06;4813529;29;20445;-85
2022/05/08 10:19:30;;;;;;;2.70;2.50;;;;;;;26.85;17.95;94841.25;4812282;29;20422;-85
2022/05/08 10:21:56;;;;;;;2.80;2.60;;;;;;;26.75;18.47;94846.75;4801120;29;20452;-86
2022/05/08 10:24:31;;;;;;;3.77;2.20;;;;;;;27.24;18.30;94843.56;4812493;29;20435;-85
2022/05/08 10:30:42;;;;;;;3.40;2.50;;;;;;;27.43;18.53;94838.16;4794696;30;20467;-86
2022/05/08 10:33:11;;;;;;;2.70;2.50;;;;;;;26.91;18.75;94828.53;4802371;29;20439;-88
2022/05/08 10:35:37;;;;;;;2.90;2.03;;;;;;;27.38;18.37;94827.50;4808614;29;20292;-86
2022/05/08 10:38:02;;;;;;;2.30;2.20;;;;;;;27.13;17.96;94827.88;4838594;29;20512;-88
2022/05/08 10:40:28;;;;;;;3.70;2.37;;;;;;;27.91;17.33;94822.78;4838142;29;20264;-86
2022/05/08 10:43:02;;;;;;;2.63;2.43;;;;;;;27.90;17.39;94823.88;4825221;29;20201;-86
2022/05/08 10:45:34;;;;;;;3.17;2.17;;;;;;;26.48;17.51;94822.16;4809079;29;20197;-87
2022/05/08 10:48:07;;;;;;;3.57;2.33;;;;;;;27.02;17.31;94825.38;4816445;29;20526;-84
2022/05/08 10:50:35;;;;;;;3.43;2.03;;;;;;;26.76;17.63;94818.81;4820231;29;20484;-86
2022/05/08 10:53:00;;;;;;;3.23;2.27;;;;;;;27.96;17.53;94814.59;4810300;29;20474;-86
2022/05/08 10:55:27;;;;;;;4.10;3.80;;;;;;;28.45;17.09;94807.63;4804849;29;20443;-87
2022/05/08 10:57:55;;;;;;;2.80;2.60;;;;;;;28.60;16.94;94806.53;4805764;29;20196;-83
2022/05/08 11:00:23;;;;;;;4.77;3.00;;;;;;;27.77;17.48;94803.91;4807982;29;20454;-85
2022/05/08 11:02:52;;;;;;;2.83;2.63;;;;;;;28.44;17.86;94806.06;4800648;29;20432;-83
2022/05/08 11:05:19;;;;;;;4.27;3.97;;;;;;;28.42;17.39;94797.47;4807872;29;20480;-84
2022/05/08 11:07:52;;;;;;;3.17;2.87;;;;;;;28.36;17.44;94796.81;4817368;29;20438;-84
2022/05/08 11:10:22;;;;;;;2.80;2.60;;;;;;;27.92;18.16;94797.47;4822545;29;20438;-84
2022/05/08 11:12:54;;;;;;;2.77;2.57;;;;;;;26.76;18.93;94791.97;4839578;29;20462;-83
2022/05/08 11:15:20;;;;;;;2.23;2.03;;;;;;;27.51;18.57;94796.34;4818769;29;20449;-84
2022/05/08 11:17:46;;;;;;;3.70;2.87;;;;;;;27.84;18.55;94793.56;4822930;29;20445;-84
2022/05/08 11:20:15;;;;;;;2.67;2.47;;;;;;;28.43;17.85;94794.47;4823195;29;20200;-84
2022/05/08 11:22:57;;;;;;;2.93;2.73;;;;;;;28.34;18.58;94787.41;4839722;29;20191;-84
2022/05/08 11:25:23;;;;;;;2.73;2.53;;;;;;;27.89;18.59;94792.66;4805989;29;20552;-83
2022/05/08 11:27:55;;;;;;;5.47;2.60;;;;;;;28.65;17.96;94782.16;4804199;29;20426;-83
2022/05/08 11:30:36;;;;;;;6.57;2.90;;;;;;;28.88;17.24;94780.25;4821471;29;20447;-83
2022/05/08 11:36:04;;;;;;;2.73;2.50;;;;;;;28.23;18.35;94779.56;4802723;30;20555;-82
2022/05/08 11:38:51;;;;;;;2.50;2.40;;;;;;;27.67;18.71;94775.34;4830698;29;20415;-83
2022/05/08 11:41:19;;;;;;;2.40;2.13;;;;;;;28.10;18.57;94766.94;4831975;29;20483;-83
2022/05/08 11:43:46;;;;;;;4.40;2.30;;;;;;;28.29;18.18;94766.00;4820283;29;20432;-83
2022/05/08 11:46:15;;;;;;;2.90;2.63;;;;;;;28.77;17.91;94773.53;4828569;29;20502;-83
2022/05/08 11:48:46;;;;;;;2.00;1.70;;;;;;;28.02;17.26;94768.47;4822095;29;20423;-82
2022/05/08 11:51:18;;;;;;;2.10;2.00;;;;;;;27.77;18.00;94766.25;4808186;29;20442;-82
2022/05/08 11:53:49;;;;;;;2.27;2.10;;;;;;;28.60;16.92;94758.81;4800748;30;20475;-82
2022/05/08 11:56:33;;;;;;;2.70;2.03;;;;;;;28.98;17.11;94769.22;4833791;29;20479;-82
2022/05/08 11:59:03;;;;;;;4.20;2.40;;;;;;;29.42;16.73;94765.97;4833454;29;20449;-82
2022/05/08 12:01:35;;;;;;;4.63;2.57;;;;;;;29.48;16.94;94760.16;4809757;29;20447;-82
2022/05/08 12:04:26;;;;;;;2.20;2.10;;;;;;;29.77;15.70;94756.16;4822310;29;20422;-82
2022/05/08 12:06:56;;;;;;;2.10;2.00;;;;;;;29.83;15.19;94759.50;4821663;29;20475;-80
2022/05/08 12:09:22;;;;;;;2.70;2.00;;;;;;;29.43;15.26;94746.81;4807958;29;20442;-81